M/T Goviken — 9HA2718 — position and weather

sailwx.info

Track history (hours):
 
Tides and Currents Weather Stations Pressure Air Temp Water Temp Dewpoint Dewpoint Depression Visibility Wind Speed Wind Dir Waves Ship Positions

M/T Goviken

Last reported at 2014-Nov-24 21:29 UTC. Time now 2014-Nov-24 22:52 UTC.
Position N 53°09' E 004°30'.

Length 88 m; draft 6.7 m.

Type: Ship (hazmat cat C). MMSI: 215389000.

Date/timePositionNaut miles runAvg speedWind from/ knotsBaromVisibWave heightAir tempDewpointWater temp
2014-Nov-24 21:29N 53°09' E 004°30'19 9.7
2014-Nov-24 19:33N 52°52' E 004°15'1210.3
2014-Nov-24 18:23N 52°42' E 004°04'1010.5
2014-Nov-24 17:28N 52°34' E 003°56'1011.0
2014-Nov-24 16:33N 52°24' E 003°53'1110.8
2014-Nov-24 15:33N 52°13' E 003°53'1110.6
2014-Nov-24 14:34N 52°03' E 003°58'8 8.0
2014-Nov-24 13:33N 51°58' E 004°08'10 9.9
2014-Nov-24 12:33N 51°54' E 004°22'0 0.3
2014-Nov-24 11:29N 51°53' E 004°22'0 0.0
2014-Nov-24 10:29N 51°53' E 004°22'0 0.0
2014-Nov-24 09:26N 51°53' E 004°22'0 0.0
2014-Nov-24 08:26N 51°53' E 004°22'0 0.0
2014-Nov-24 07:26N 51°53' E 004°22'0 0.0
2014-Nov-24 06:29N 51°53' E 004°22'0 0.0
2014-Nov-24 05:29N 51°53' E 004°22'0 0.0
2014-Nov-24 04:32N 51°53' E 004°22'0 0.0
2014-Nov-24 03:32N 51°53' E 004°22'0 0.0
2014-Nov-24 02:32N 51°53' E 004°22'0 0.0
2014-Nov-24 01:29N 51°53' E 004°22'0 0.0
2014-Nov-24 00:32N 51°53' E 004°22'0 0.0
2014-Nov-23 23:32N 51°53' E 004°22'0 0.0
2014-Nov-23 22:32N 51°53' E 004°22'0 0.0
2014-Nov-23 21:29N 51°53' E 004°22'0 0.0
2014-Nov-23 20:29N 51°53' E 004°22'0 0.0
2014-Nov-23 19:32N 51°53' E 004°22'0 0.0
2014-Nov-23 18:29N 51°53' E 004°22'0 0.0
2014-Nov-23 17:32N 51°53' E 004°22'0 0.0
2014-Nov-23 16:26N 51°53' E 004°22'0 0.0
2014-Nov-23 15:29N 51°53' E 004°22'0 0.0
2014-Nov-23 14:32N 51°53' E 004°22'0 0.0
2014-Nov-23 13:32N 51°53' E 004°22'0 0.0
2014-Nov-23 12:32N 51°53' E 004°22'0 0.0
2014-Nov-23 11:32N 51°53' E 004°22'0 0.0
2014-Nov-23 10:32N 51°53' E 004°22'0 0.0
2014-Nov-23 09:32N 51°53' E 004°22'0 0.0
2014-Nov-23 08:32N 51°53' E 004°22'0 0.0
2014-Nov-23 07:32N 51°53' E 004°22'0 0.0
2014-Nov-23 06:32N 51°53' E 004°22'0 0.0
2014-Nov-23 05:26N 51°53' E 004°22'0 0.0
2014-Nov-23 04:32N 51°53' E 004°22'0 0.0
2014-Nov-23 03:32N 51°53' E 004°22'0 0.0
2014-Nov-23 02:32N 51°53' E 004°22'0 0.0
2014-Nov-23 01:32N 51°53' E 004°22'0 0.0
2014-Nov-23 00:32N 51°53' E 004°22'0 0.0
2014-Nov-22 23:32N 51°53' E 004°22'0 0.0
2014-Nov-22 22:32N 51°53' E 004°22'0 0.0
2014-Nov-22 21:23N 51°53' E 004°22'0 0.0
2014-Nov-22 20:32N 51°53' E 004°22'0 0.0
2014-Nov-22 19:29N 51°53' E 004°22'0 0.4
2014-Nov-22 18:33N 51°54' E 004°22'1 0.9
2014-Nov-22 17:29N 51°53' E 004°21'0 0.0
2014-Nov-22 16:32N 51°53' E 004°21'0 0.0
2014-Nov-22 15:29N 51°53' E 004°21'0 0.0
2014-Nov-22 14:32N 51°53' E 004°21'0 0.0
2014-Nov-22 13:32N 51°53' E 004°21'0 0.0
2014-Nov-22 12:29N 51°53' E 004°21'0 0.0
2014-Nov-22 11:20N 51°53' E 004°21'0 0.0
2014-Nov-22 10:26N 51°53' E 004°21'0 0.0
2014-Nov-22 09:26N 51°53' E 004°21'0 0.0
2014-Nov-22 08:29N 51°53' E 004°21'0 0.0
2014-Nov-22 07:26N 51°53' E 004°21'0 0.0
2014-Nov-22 06:26N 51°53' E 004°21'0 0.0
2014-Nov-22 05:32N 51°53' E 004°21'0 0.0
2014-Nov-22 04:29N 51°53' E 004°21'0 0.0
2014-Nov-22 03:32N 51°53' E 004°21'0 0.0
2014-Nov-22 02:29N 51°53' E 004°21'0 0.0
2014-Nov-22 01:29N 51°53' E 004°21'0 0.0
2014-Nov-22 00:32N 51°53' E 004°21'0 0.0
2014-Nov-21 23:23N 51°53' E 004°21'0 0.0
2014-Nov-21 22:29N 51°53' E 004°21'0 0.0
2014-Nov-21 21:32N 51°53' E 004°21'0 0.0
2014-Nov-21 20:32N 51°53' E 004°21'0 0.0
2014-Nov-21 19:29N 51°53' E 004°21'0 0.0
2014-Nov-21 18:32N 51°53' E 004°21'0 0.0
2014-Nov-21 17:32N 51°53' E 004°21'0 0.0
2014-Nov-21 16:32N 51°53' E 004°21'0 0.0
2014-Nov-21 15:23N 51°53' E 004°21'0 0.0
2014-Nov-21 14:32N 51°53' E 004°21'0 0.0
2014-Nov-21 13:32N 51°53' E 004°21'0 0.0
2014-Nov-21 12:29N 51°53' E 004°21'0 0.0
2014-Nov-21 11:26N 51°53' E 004°21'0 0.0
2014-Nov-21 10:17N 51°53' E 004°21'0 0.0
2014-Nov-21 09:32N 51°53' E 004°21'0 0.0
2014-Nov-21 08:32N 51°53' E 004°21'0 0.0
2014-Nov-21 07:29N 51°53' E 004°21'0 0.0
2014-Nov-21 06:26N 51°53' E 004°21'1 1.1
2014-Nov-21 05:33N 51°54' E 004°21'1 1.0
2014-Nov-21 04:31N 51°53' E 004°22'0 0.0
2014-Nov-21 03:31N 51°53' E 004°22'0 0.0
2014-Nov-21 02:28N 51°53' E 004°22'0 0.0
2014-Nov-21 01:31N 51°53' E 004°22'0 0.0
2014-Nov-21 00:25N 51°53' E 004°22'0 0.0
2014-Nov-20 23:25N 51°53' E 004°22'0 0.0
2014-Nov-20 22:31N 51°53' E 004°22'0 0.0
2014-Nov-20 21:16N 51°53' E 004°22'0 0.0
2014-Nov-20 20:22N 51°53' E 004°22'0 0.0
2014-Nov-20 19:22N 51°53' E 004°22'0 0.0
2014-Nov-20 18:10N 51°53' E 004°22'0 0.0
2014-Nov-20 17:31N 51°53' E 004°22'0 0.0
2014-Nov-20 16:25N 51°53' E 004°22'0 0.4
2014-Nov-20 15:33N 51°54' E 004°22'7 7.2
2014-Nov-20 14:33N 51°56' E 004°11'10 9.7
2014-Nov-20 13:33N 52°00' E 003°57'10 9.6
2014-Nov-20 12:30N 51°58' E 003°41'1111.4
2014-Nov-20 11:31N 51°56' E 003°23'10 7.2
2014-Nov-20 10:09N 51°53' E 003°08'610.4
2014-Nov-20 09:32N 51°50' E 002°58'19 9.3
2014-Nov-20 07:32N 51°41' E 002°32'9 8.8
2014-Nov-20 06:33N 51°35' E 002°23'8 8.4
2014-Nov-20 05:33N 51°28' E 002°14'7 7.4
2014-Nov-20 04:32N 51°21' E 002°16'1010.7
2014-Nov-20 03:33N 51°23' E 002°32'1211.3
2014-Nov-20 02:28N 51°22' E 002°52'1011.0
2014-Nov-20 01:33N 51°22' E 003°08'3 0.2
2014-Nov-19 09:33N 51°21' E 003°12'7 7.1
2014-Nov-19 08:32N 51°22' E 003°00'1110.5
2014-Nov-19 07:30N 51°22' E 002°43'1010.0
2014-Nov-19 06:32N 51°21' E 002°28'9 9.3
2014-Nov-19 05:33N 51°18' E 002°14'9 8.9
2014-Nov-19 04:34N 51°23' E 002°01'8 8.1
2014-Nov-19 03:34N 51°31' E 002°02'1110.5
2014-Nov-19 02:32N 51°39' E 002°14'40 9.6
2014-Nov-18 22:23N 52°02' E 003°06'24 4.8
2014-Nov-18 17:23N 52°09' E 003°43'0 0.0
2014-Nov-18 16:29N 52°09' E 003°43'0 0.0
2014-Nov-18 15:08N 52°09' E 003°43'0 0.0
2014-Nov-18 14:29N 52°09' E 003°43'0 0.0
2014-Nov-18 13:32N 52°09' E 003°43'0 0.1
2014-Nov-18 12:26N 52°09' E 003°44'0 0.0
2014-Nov-18 11:17N 52°09' E 003°44'0 0.1
2014-Nov-18 10:32N 52°09' E 003°44'0 0.1
2014-Nov-18 09:32N 52°09' E 003°43'0 0.0
2014-Nov-18 08:32N 52°09' E 003°43'0 0.0
2014-Nov-18 07:29N 52°09' E 003°43'0 0.0
2014-Nov-18 06:26N 52°09' E 003°44'0 0.0
2014-Nov-18 05:11N 52°09' E 003°44'0 0.0
2014-Nov-18 04:08N 52°09' E 003°44'0 0.0
2014-Nov-18 03:32N 52°09' E 003°44'0 0.0
2014-Nov-18 02:32N 52°09' E 003°43'0 0.0
2014-Nov-18 00:32N 52°09' E 003°44'0 0.0
2014-Nov-17 23:32N 52°09' E 003°44'0 0.0
2014-Nov-17 22:29N 52°09' E 003°44'0 0.0
2014-Nov-17 21:32N 52°09' E 003°44'0 0.0
2014-Nov-17 20:23N 52°09' E 003°43'0 0.0
2014-Nov-17 19:32N 52°09' E 003°43'0 0.0
2014-Nov-17 18:26N 52°09' E 003°43'0 0.0
2014-Nov-17 17:32N 52°09' E 003°44'0 0.0
2014-Nov-17 16:26N 52°09' E 003°44'0 0.1
2014-Nov-17 15:32N 52°09' E 003°44'0 0.1
2014-Nov-17 14:32N 52°09' E 003°44'0 0.0
2014-Nov-17 13:32N 52°09' E 003°44'0 0.0
2014-Nov-17 12:32N 52°09' E 003°44'0 0.0
2014-Nov-17 11:32N 52°09' E 003°44'0 0.0
2014-Nov-17 10:20N 52°09' E 003°44'0 0.0
2014-Nov-17 09:26N 52°09' E 003°44'0 0.0
2014-Nov-17 08:32N 52°09' E 003°44'0 0.0
2014-Nov-17 07:32N 52°09' E 003°44'0 0.0
2014-Nov-17 06:32N 52°09' E 003°44'0 0.0
2014-Nov-17 05:26N 52°09' E 003°44'0 0.0
2014-Nov-17 04:32N 52°09' E 003°44'0 0.0
2014-Nov-17 03:29N 52°09' E 003°44'0 0.0
2014-Nov-17 02:32N 52°09' E 003°44'0 0.0
2014-Nov-17 01:29N 52°09' E 003°44'0 0.0
2014-Nov-17 00:29N 52°09' E 003°44'0 0.0
2014-Nov-16 23:32N 52°09' E 003°44'0 0.0
2014-Nov-16 22:26N 52°09' E 003°44'0 0.0
2014-Nov-16 20:29N 52°09' E 003°44'0 0.0
2014-Nov-16 19:32N 52°09' E 003°44'0 0.0
2014-Nov-16 18:11N 52°09' E 003°44'0 0.1
2014-Nov-16 17:26N 52°09' E 003°44'0 0.0
2014-Nov-16 16:23N 52°09' E 003°44'0 0.0
2014-Nov-16 14:23N 52°09' E 003°44'0 0.0
2014-Nov-16 13:32N 52°09' E 003°44'0 0.1
2014-Nov-16 12:23N 52°09' E 003°44'0 0.0
2014-Nov-16 11:29N 52°09' E 003°44'0 0.0
2014-Nov-16 10:23N 52°09' E 003°44'0 0.0
2014-Nov-16 09:14N 52°09' E 003°44'0 0.0
2014-Nov-16 08:05N 52°09' E 003°44'0 0.0
2014-Nov-16 07:29N 52°09' E 003°44'0 0.0
2014-Nov-16 06:32N 52°09' E 003°44'0 0.1
2014-Nov-16 05:32N 52°09' E 003°44'0 0.0
2014-Nov-16 04:32N 52°09' E 003°44'0 0.0
2014-Nov-16 03:23N 52°09' E 003°44'0 0.0
2014-Nov-16 02:32N 52°09' E 003°44'0 0.1
2014-Nov-16 01:26N 52°09' E 003°44'0 0.0
2014-Nov-16 00:14N 52°09' E 003°44'0 0.0
2014-Nov-15 23:29N 52°09' E 003°44'0 0.0
2014-Nov-15 22:20N 52°09' E 003°44'0 0.0
2014-Nov-15 21:23N 52°09' E 003°44'0 0.0
2014-Nov-15 20:26N 52°09' E 003°44'0 0.0
2014-Nov-15 17:17N 52°09' E 003°44'0 0.0
2014-Nov-15 15:29N 52°09' E 003°44'0 0.0
2014-Nov-15 14:23N 52°09' E 003°44'0 0.0
2014-Nov-15 13:29N 52°09' E 003°44'0 0.0
2014-Nov-15 12:26N 52°09' E 003°44'0 0.0
2014-Nov-15 10:29N 52°09' E 003°44'0 0.0
2014-Nov-15 09:20N 52°09' E 003°44'0 0.0
2014-Nov-15 06:17N 52°09' E 003°44'0 0.0
2014-Nov-15 05:17N 52°09' E 003°44'0 0.1
2014-Nov-15 04:20N 52°09' E 003°44'0 0.0
2014-Nov-15 03:26N 52°09' E 003°44'0 0.0
2014-Nov-15 02:26N 52°09' E 003°44'0 0.0
2014-Nov-15 01:26N 52°09' E 003°44'0 0.1
2014-Nov-15 00:17N 52°09' E 003°44'0 0.1
2014-Nov-14 23:29N 52°09' E 003°44'0 0.0
2014-Nov-14 22:32N 52°09' E 003°44'  
Track history (hours):
 
Tides and Currents Weather Stations Pressure Air Temp Water Temp Dewpoint Dewpoint Depression Visibility Wind Speed Wind Dir Waves Ship Positions

M/T Goviken

Last reported at 2014-Nov-24 21:29 UTC. Time now 2014-Nov-24 22:52 UTC.
Position N 53°09' E 004°30'.

Length 88 m; draft 6.7 m.

Type: Ship (hazmat cat C). MMSI: 215389000.

Date/timePositionNaut miles runAvg speedWind from/ knotsBaromVisibWave heightAir tempDewpointWater temp
2014-Nov-24 21:29N 53°09' E 004°30'19 9.7
2014-Nov-24 19:33N 52°52' E 004°15'1210.3
2014-Nov-24 18:23N 52°42' E 004°04'1010.5
2014-Nov-24 17:28N 52°34' E 003°56'1011.0
2014-Nov-24 16:33N 52°24' E 003°53'1110.8
2014-Nov-24 15:33N 52°13' E 003°53'1110.6
2014-Nov-24 14:34N 52°03' E 003°58'8 8.0
2014-Nov-24 13:33N 51°58' E 004°08'10 9.9
2014-Nov-24 12:33N 51°54' E 004°22'0 0.3
2014-Nov-24 11:29N 51°53' E 004°22'0 0.0
2014-Nov-24 10:29N 51°53' E 004°22'0 0.0
2014-Nov-24 09:26N 51°53' E 004°22'0 0.0
2014-Nov-24 08:26N 51°53' E 004°22'0 0.0
2014-Nov-24 07:26N 51°53' E 004°22'0 0.0
2014-Nov-24 06:29N 51°53' E 004°22'0 0.0
2014-Nov-24 05:29N 51°53' E 004°22'0 0.0
2014-Nov-24 04:32N 51°53' E 004°22'0 0.0
2014-Nov-24 03:32N 51°53' E 004°22'0 0.0
2014-Nov-24 02:32N 51°53' E 004°22'0 0.0
2014-Nov-24 01:29N 51°53' E 004°22'0 0.0
2014-Nov-24 00:32N 51°53' E 004°22'0 0.0
2014-Nov-23 23:32N 51°53' E 004°22'0 0.0
2014-Nov-23 22:32N 51°53' E 004°22'0 0.0
2014-Nov-23 21:29N 51°53' E 004°22'0 0.0
2014-Nov-23 20:29N 51°53' E 004°22'0 0.0
2014-Nov-23 19:32N 51°53' E 004°22'0 0.0
2014-Nov-23 18:29N 51°53' E 004°22'0 0.0
2014-Nov-23 17:32N 51°53' E 004°22'0 0.0
2014-Nov-23 16:26N 51°53' E 004°22'0 0.0
2014-Nov-23 15:29N 51°53' E 004°22'0 0.0
2014-Nov-23 14:32N 51°53' E 004°22'0 0.0
2014-Nov-23 13:32N 51°53' E 004°22'0 0.0
2014-Nov-23 12:32N 51°53' E 004°22'0 0.0
2014-Nov-23 11:32N 51°53' E 004°22'0 0.0
2014-Nov-23 10:32N 51°53' E 004°22'0 0.0
2014-Nov-23 09:32N 51°53' E 004°22'0 0.0
2014-Nov-23 08:32N 51°53' E 004°22'0 0.0
2014-Nov-23 07:32N 51°53' E 004°22'0 0.0
2014-Nov-23 06:32N 51°53' E 004°22'0 0.0
2014-Nov-23 05:26N 51°53' E 004°22'0 0.0
2014-Nov-23 04:32N 51°53' E 004°22'0 0.0
2014-Nov-23 03:32N 51°53' E 004°22'0 0.0
2014-Nov-23 02:32N 51°53' E 004°22'0 0.0
2014-Nov-23 01:32N 51°53' E 004°22'0 0.0
2014-Nov-23 00:32N 51°53' E 004°22'0 0.0
2014-Nov-22 23:32N 51°53' E 004°22'0 0.0
2014-Nov-22 22:32N 51°53' E 004°22'0 0.0
2014-Nov-22 21:23N 51°53' E 004°22'0 0.0
2014-Nov-22 20:32N 51°53' E 004°22'0 0.0
2014-Nov-22 19:29N 51°53' E 004°22'0 0.4
2014-Nov-22 18:33N 51°54' E 004°22'1 0.9
2014-Nov-22 17:29N 51°53' E 004°21'0 0.0
2014-Nov-22 16:32N 51°53' E 004°21'0 0.0
2014-Nov-22 15:29N 51°53' E 004°21'0 0.0
2014-Nov-22 14:32N 51°53' E 004°21'0 0.0
2014-Nov-22 13:32N 51°53' E 004°21'0 0.0
2014-Nov-22 12:29N 51°53' E 004°21'0 0.0
2014-Nov-22 11:20N 51°53' E 004°21'0 0.0
2014-Nov-22 10:26N 51°53' E 004°21'0 0.0
2014-Nov-22 09:26N 51°53' E 004°21'0 0.0
2014-Nov-22 08:29N 51°53' E 004°21'0 0.0
2014-Nov-22 07:26N 51°53' E 004°21'0 0.0
2014-Nov-22 06:26N 51°53' E 004°21'0 0.0
2014-Nov-22 05:32N 51°53' E 004°21'0 0.0
2014-Nov-22 04:29N 51°53' E 004°21'0 0.0
2014-Nov-22 03:32N 51°53' E 004°21'0 0.0
2014-Nov-22 02:29N 51°53' E 004°21'0 0.0
2014-Nov-22 01:29N 51°53' E 004°21'0 0.0
2014-Nov-22 00:32N 51°53' E 004°21'0 0.0
2014-Nov-21 23:23N 51°53' E 004°21'0 0.0
2014-Nov-21 22:29N 51°53' E 004°21'0 0.0
2014-Nov-21 21:32N 51°53' E 004°21'0 0.0
2014-Nov-21 20:32N 51°53' E 004°21'0 0.0
2014-Nov-21 19:29N 51°53' E 004°21'0 0.0
2014-Nov-21 18:32N 51°53' E 004°21'0 0.0
2014-Nov-21 17:32N 51°53' E 004°21'0 0.0
2014-Nov-21 16:32N 51°53' E 004°21'0 0.0
2014-Nov-21 15:23N 51°53' E 004°21'0 0.0
2014-Nov-21 14:32N 51°53' E 004°21'0 0.0
2014-Nov-21 13:32N 51°53' E 004°21'0 0.0
2014-Nov-21 12:29N 51°53' E 004°21'0 0.0
2014-Nov-21 11:26N 51°53' E 004°21'0 0.0
2014-Nov-21 10:17N 51°53' E 004°21'0 0.0
2014-Nov-21 09:32N 51°53' E 004°21'0 0.0
2014-Nov-21 08:32N 51°53' E 004°21'0 0.0
2014-Nov-21 07:29N 51°53' E 004°21'0 0.0
2014-Nov-21 06:26N 51°53' E 004°21'1 1.1
2014-Nov-21 05:33N 51°54' E 004°21'1 1.0
2014-Nov-21 04:31N 51°53' E 004°22'0 0.0
2014-Nov-21 03:31N 51°53' E 004°22'0 0.0
2014-Nov-21 02:28N 51°53' E 004°22'0 0.0
2014-Nov-21 01:31N 51°53' E 004°22'0 0.0
2014-Nov-21 00:25N 51°53' E 004°22'0 0.0
2014-Nov-20 23:25N 51°53' E 004°22'0 0.0
2014-Nov-20 22:31N 51°53' E 004°22'0 0.0
2014-Nov-20 21:16N 51°53' E 004°22'0 0.0
2014-Nov-20 20:22N 51°53' E 004°22'0 0.0
2014-Nov-20 19:22N 51°53' E 004°22'0 0.0
2014-Nov-20 18:10N 51°53' E 004°22'0 0.0
2014-Nov-20 17:31N 51°53' E 004°22'0 0.0
2014-Nov-20 16:25N 51°53' E 004°22'0 0.4
2014-Nov-20 15:33N 51°54' E 004°22'7 7.2
2014-Nov-20 14:33N 51°56' E 004°11'10 9.7
2014-Nov-20 13:33N 52°00' E 003°57'10 9.6
2014-Nov-20 12:30N 51°58' E 003°41'1111.4
2014-Nov-20 11:31N 51°56' E 003°23'10 7.2
2014-Nov-20 10:09N 51°53' E 003°08'610.4
2014-Nov-20 09:32N 51°50' E 002°58'19 9.3
2014-Nov-20 07:32N 51°41' E 002°32'9 8.8
2014-Nov-20 06:33N 51°35' E 002°23'8 8.4
2014-Nov-20 05:33N 51°28' E 002°14'7 7.4
2014-Nov-20 04:32N 51°21' E 002°16'1010.7
2014-Nov-20 03:33N 51°23' E 002°32'1211.3
2014-Nov-20 02:28N 51°22' E 002°52'1011.0
2014-Nov-20 01:33N 51°22' E 003°08'3 0.2
2014-Nov-19 09:33N 51°21' E 003°12'7 7.1
2014-Nov-19 08:32N 51°22' E 003°00'1110.5
2014-Nov-19 07:30N 51°22' E 002°43'1010.0
2014-Nov-19 06:32N 51°21' E 002°28'9 9.3
2014-Nov-19 05:33N 51°18' E 002°14'9 8.9
2014-Nov-19 04:34N 51°23' E 002°01'8 8.1
2014-Nov-19 03:34N 51°31' E 002°02'1110.5
2014-Nov-19 02:32N 51°39' E 002°14'40 9.6
2014-Nov-18 22:23N 52°02' E 003°06'24 4.8
2014-Nov-18 17:23N 52°09' E 003°43'0 0.0
2014-Nov-18 16:29N 52°09' E 003°43'0 0.0
2014-Nov-18 15:08N 52°09' E 003°43'0 0.0
2014-Nov-18 14:29N 52°09' E 003°43'0 0.0
2014-Nov-18 13:32N 52°09' E 003°43'0 0.1
2014-Nov-18 12:26N 52°09' E 003°44'0 0.0
2014-Nov-18 11:17N 52°09' E 003°44'0 0.1
2014-Nov-18 10:32N 52°09' E 003°44'0 0.1
2014-Nov-18 09:32N 52°09' E 003°43'0 0.0
2014-Nov-18 08:32N 52°09' E 003°43'0 0.0
2014-Nov-18 07:29N 52°09' E 003°43'0 0.0
2014-Nov-18 06:26N 52°09' E 003°44'0 0.0
2014-Nov-18 05:11N 52°09' E 003°44'0 0.0
2014-Nov-18 04:08N 52°09' E 003°44'0 0.0
2014-Nov-18 03:32N 52°09' E 003°44'0 0.0
2014-Nov-18 02:32N 52°09' E 003°43'0 0.0
2014-Nov-18 00:32N 52°09' E 003°44'0 0.0
2014-Nov-17 23:32N 52°09' E 003°44'0 0.0
2014-Nov-17 22:29N 52°09' E 003°44'0 0.0
2014-Nov-17 21:32N 52°09' E 003°44'0 0.0
2014-Nov-17 20:23N 52°09' E 003°43'0 0.0
2014-Nov-17 19:32N 52°09' E 003°43'0 0.0
2014-Nov-17 18:26N 52°09' E 003°43'0 0.0
2014-Nov-17 17:32N 52°09' E 003°44'0 0.0
2014-Nov-17 16:26N 52°09' E 003°44'0 0.1
2014-Nov-17 15:32N 52°09' E 003°44'0 0.1
2014-Nov-17 14:32N 52°09' E 003°44'0 0.0
2014-Nov-17 13:32N 52°09' E 003°44'0 0.0
2014-Nov-17 12:32N 52°09' E 003°44'0 0.0
2014-Nov-17 11:32N 52°09' E 003°44'0 0.0
2014-Nov-17 10:20N 52°09' E 003°44'0 0.0
2014-Nov-17 09:26N 52°09' E 003°44'0 0.0
2014-Nov-17 08:32N 52°09' E 003°44'0 0.0
2014-Nov-17 07:32N 52°09' E 003°44'0 0.0
2014-Nov-17 06:32N 52°09' E 003°44'0 0.0
2014-Nov-17 05:26N 52°09' E 003°44'0 0.0
2014-Nov-17 04:32N 52°09' E 003°44'0 0.0
2014-Nov-17 03:29N 52°09' E 003°44'0 0.0
2014-Nov-17 02:32N 52°09' E 003°44'0 0.0
2014-Nov-17 01:29N 52°09' E 003°44'0 0.0
2014-Nov-17 00:29N 52°09' E 003°44'0 0.0
2014-Nov-16 23:32N 52°09' E 003°44'0 0.0
2014-Nov-16 22:26N 52°09' E 003°44'0 0.0
2014-Nov-16 20:29N 52°09' E 003°44'0 0.0
2014-Nov-16 19:32N 52°09' E 003°44'0 0.0
2014-Nov-16 18:11N 52°09' E 003°44'0 0.1
2014-Nov-16 17:26N 52°09' E 003°44'0 0.0
2014-Nov-16 16:23N 52°09' E 003°44'0 0.0
2014-Nov-16 14:23N 52°09' E 003°44'0 0.0
2014-Nov-16 13:32N 52°09' E 003°44'0 0.1
2014-Nov-16 12:23N 52°09' E 003°44'0 0.0
2014-Nov-16 11:29N 52°09' E 003°44'0 0.0
2014-Nov-16 10:23N 52°09' E 003°44'0 0.0
2014-Nov-16 09:14N 52°09' E 003°44'0 0.0
2014-Nov-16 08:05N 52°09' E 003°44'0 0.0
2014-Nov-16 07:29N 52°09' E 003°44'0 0.0
2014-Nov-16 06:32N 52°09' E 003°44'0 0.1
2014-Nov-16 05:32N 52°09' E 003°44'0 0.0
2014-Nov-16 04:32N 52°09' E 003°44'0 0.0
2014-Nov-16 03:23N 52°09' E 003°44'0 0.0
2014-Nov-16 02:32N 52°09' E 003°44'0 0.1
2014-Nov-16 01:26N 52°09' E 003°44'0 0.0
2014-Nov-16 00:14N 52°09' E 003°44'0 0.0
2014-Nov-15 23:29N 52°09' E 003°44'0 0.0
2014-Nov-15 22:20N 52°09' E 003°44'0 0.0
2014-Nov-15 21:23N 52°09' E 003°44'0 0.0
2014-Nov-15 20:26N 52°09' E 003°44'0 0.0
2014-Nov-15 17:17N 52°09' E 003°44'0 0.0
2014-Nov-15 15:29N 52°09' E 003°44'0 0.0
2014-Nov-15 14:23N 52°09' E 003°44'0 0.0
2014-Nov-15 13:29N 52°09' E 003°44'0 0.0
2014-Nov-15 12:26N 52°09' E 003°44'0 0.0
2014-Nov-15 10:29N 52°09' E 003°44'0 0.0
2014-Nov-15 09:20N 52°09' E 003°44'0 0.0
2014-Nov-15 06:17N 52°09' E 003°44'0 0.0
2014-Nov-15 05:17N 52°09' E 003°44'0 0.1
2014-Nov-15 04:20N 52°09' E 003°44'0 0.0
2014-Nov-15 03:26N 52°09' E 003°44'0 0.0
2014-Nov-15 02:26N 52°09' E 003°44'0 0.0
2014-Nov-15 01:26N 52°09' E 003°44'0 0.1
2014-Nov-15 00:17N 52°09' E 003°44'0 0.1
2014-Nov-14 23:29N 52°09' E 003°44'0 0.0
2014-Nov-14 22:32N 52°09' E 003°44'  

Dump ship's entire track history